»·PEaware :: SWA2001 KSAN-KSJC

SWA2001 :: KSAN-KSJC

FLIGHT INFORMATION

Flight Status: Arrived
Operator:
Southwest Airlines
More flights by this operator :: More flights under this callsign
Pilot: Daniel W. (24238)
Aircraft: BOEING 737-800
(B738)
More flights by this aircraft type
Origin: KSAN San Diego Intl-Lindbergh
United States
Destination: KSJC Mineta San Jose Intl
United States
More flights between these airports :: More routes between these airports
Route: PADRZ2 IKAYE TESEA SCTRR TROXX SILCN4
File this flight plan on PilotEdge
Remarks: PBN / A1D1O1S2T1 NAV / RNVD1E1A1 RNP10 DAT / 1FANSP2PDC DOF / 200108 REG / N8562Z EET / KZOA0043 SEL / BPKQ CODE / ABC058 PER / C
Altitude:
(Current/Filed)
34,000ft
Speed:
(Current/Filed)
430kts
Departed: 08-Jan-20 02:38 PM
Arrived: 08-Jan-20 03:43 PM
Distance/Time
Traveled:
362nm/1:04
Distance/Time
To Go:
Arrived

Flight Plot

Page will automatically refresh every two minutes.

Flight plan parsing failed; only flown route is shown


Map Options




Map Legend


Flown Route
Filed Route
Departure Airport
Arrival Airport
Navaid (VOR, NDB)
Fix

Horizontal Profiles

Position Reports

Time Latitude Longitude Heading Altitude Ground
Speed
08-Jan-20 13:36 32.731576 -117.195535 257 23ft 0kts
08-Jan-20 13:37 32.731576 -117.195535 257 23ft 0kts
08-Jan-20 13:38 32.731576 -117.195535 257 23ft 0kts
08-Jan-20 13:39 32.731576 -117.195535 257 23ft 0kts
08-Jan-20 13:40 32.731576 -117.195535 257 23ft 0kts
08-Jan-20 13:41 32.731576 -117.195535 257 23ft 0kts
08-Jan-20 13:42 32.731576 -117.195535 257 23ft 0kts
08-Jan-20 13:43 32.731576 -117.195535 257 23ft 0kts
08-Jan-20 13:44 32.731576 -117.195535 257 23ft 0kts
08-Jan-20 13:45 32.731576 -117.195535 257 23ft 0kts
08-Jan-20 13:46 32.731576 -117.195535 257 23ft 0kts
08-Jan-20 13:47 32.731576 -117.195535 257 23ft 0kts
08-Jan-20 13:48 32.731576 -117.195535 257 23ft 0kts
08-Jan-20 13:49 32.731576 -117.195535 257 23ft 0kts
08-Jan-20 13:50 32.731576 -117.195535 257 23ft 0kts
08-Jan-20 13:51 32.731576 -117.195535 257 23ft 0kts
08-Jan-20 13:52 32.731576 -117.195535 257 23ft 0kts
08-Jan-20 13:53 32.731576 -117.195535 257 23ft 0kts
08-Jan-20 13:54 32.731576 -117.195535 257 23ft 0kts
08-Jan-20 13:55 32.731576 -117.195535 257 23ft 0kts
08-Jan-20 13:56 32.731576 -117.195535 257 23ft 0kts
08-Jan-20 13:57 32.731576 -117.195535 257 23ft 0kts
08-Jan-20 13:58 32.731576 -117.195535 257 23ft 0kts
08-Jan-20 13:59 32.731576 -117.195535 257 23ft 0kts
08-Jan-20 14:00 32.731576 -117.195535 257 23ft 0kts
08-Jan-20 14:01 32.731576 -117.195535 257 23ft 0kts
08-Jan-20 14:02 32.731576 -117.195535 257 23ft 0kts
08-Jan-20 14:03 32.731576 -117.195535 257 23ft 0kts
08-Jan-20 14:04 32.731576 -117.195535 257 23ft 0kts
08-Jan-20 14:05 32.731576 -117.195535 257 23ft 0kts
08-Jan-20 14:06 32.731576 -117.195535 257 23ft 0kts
08-Jan-20 14:07 32.731576 -117.195535 257 23ft 0kts
08-Jan-20 14:08 32.731576 -117.195535 257 23ft 0kts
08-Jan-20 14:09 32.731576 -117.195535 257 23ft 0kts
08-Jan-20 14:10 32.731576 -117.195535 257 23ft 0kts
08-Jan-20 14:11 32.731576 -117.195535 257 23ft 0kts
08-Jan-20 14:12 32.731576 -117.195535 257 23ft 0kts
08-Jan-20 14:13 32.731576 -117.195535 257 23ft 0kts
08-Jan-20 14:14 32.731576 -117.195535 257 23ft 0kts
08-Jan-20 14:15 32.731576 -117.195535 257 23ft 0kts
08-Jan-20 14:16 32.731576 -117.195535 257 23ft 0kts
08-Jan-20 14:17 32.731576 -117.195535 257 23ft 0kts
08-Jan-20 14:18 32.731576 -117.195535 257 23ft 0kts
08-Jan-20 14:19 32.731576 -117.195535 257 23ft 0kts
08-Jan-20 14:20 32.731576 -117.195535 257 23ft 0kts
08-Jan-20 14:21 32.731576 -117.195535 257 23ft 0kts
08-Jan-20 14:22 32.731740 -117.195097 314 23ft 2kts
08-Jan-20 14:23 32.732335 -117.194822 28 23ft 0kts
08-Jan-20 14:24 32.732335 -117.194822 28 23ft 0kts
08-Jan-20 14:25 32.732335 -117.194822 28 23ft 0kts
08-Jan-20 14:26 32.732335 -117.194822 28 23ft 0kts
08-Jan-20 14:27 32.732859 -117.194477 29 23ft 0kts
08-Jan-20 14:28 32.732860 -117.194476 29 23ft 0kts
08-Jan-20 14:29 32.732861 -117.194475 29 23ft 0kts
08-Jan-20 14:30 32.732972 -117.191537 106 23ft 20kts
08-Jan-20 14:31 32.731210 -117.184233 105 23ft 24kts
08-Jan-20 14:32 32.729549 -117.177386 106 23ft 14kts
08-Jan-20 14:33 32.729530 -117.176735 71 23ft 0kts
08-Jan-20 14:34 32.729530 -117.176735 71 23ft 0kts
08-Jan-20 14:35 32.729530 -117.176735 71 23ft 0kts
08-Jan-20 14:36 32.729530 -117.176735 71 23ft 0kts
08-Jan-20 14:37 32.731032 -117.179277 286 23ft 73kts
08-Jan-20 14:38 32.746797 -117.224828 301 1755ft 186kts
08-Jan-20 14:39 32.780100 -117.284886 303 4171ft 248kts
08-Jan-20 14:40 32.822661 -117.354636 306 7818ft 266kts
08-Jan-20 14:41 32.868741 -117.425455 304 11592ft 279kts
08-Jan-20 14:42 32.922073 -117.508423 305 13450ft 345kts
08-Jan-20 14:44 32.981711 -117.601184 305 14968ft 355kts
08-Jan-20 14:45 33.041399 -117.694617 305 14985ft 355kts
08-Jan-20 14:46 33.112703 -117.779385 317 17503ft 369kts
08-Jan-20 14:47 33.192351 -117.860361 316 20161ft 383kts
08-Jan-20 14:48 33.269075 -117.950607 312 22506ft 393kts
08-Jan-20 14:49 33.347183 -118.044984 312 24581ft 405kts
08-Jan-20 14:50 33.427646 -118.141818 312 26366ft 416kts
08-Jan-20 14:51 33.507270 -118.236913 312 27867ft 425kts
08-Jan-20 14:52 33.590762 -118.337361 312 29728ft 422kts
08-Jan-20 14:53 33.673189 -118.436930 312 31528ft 418kts
08-Jan-20 14:54 33.754555 -118.535518 312 33208ft 413kts
08-Jan-20 14:55 33.835242 -118.633565 312 34021ft 414kts
08-Jan-20 14:56 33.915697 -118.731593 312 34032ft 409kts
08-Jan-20 14:57 33.995870 -118.829248 312 34038ft 409kts
08-Jan-20 14:58 34.075349 -118.926905 313 34039ft 407kts
08-Jan-20 14:59 34.154588 -119.024348 314 34038ft 406kts
08-Jan-20 15:00 34.235209 -119.120226 314 34031ft 406kts
08-Jan-20 15:01 34.315345 -119.216167 314 34037ft 406kts
08-Jan-20 15:02 34.395589 -119.312438 315 34040ft 405kts
08-Jan-20 15:03 34.475832 -119.408280 315 34048ft 405kts
08-Jan-20 15:03 34.542481 -119.488475 315 34051ft 405kts
08-Jan-20 15:05 34.635414 -119.600719 315 34051ft 405kts
08-Jan-20 15:06 34.715136 -119.697333 315 34046ft 403kts
08-Jan-20 15:06 34.781364 -119.777809 315 34064ft 403kts
08-Jan-20 15:08 34.873743 -119.890388 314 34090ft 403kts
08-Jan-20 15:09 34.952897 -119.986996 315 34092ft 402kts
08-Jan-20 15:09 35.018796 -120.067559 314 34101ft 401kts
08-Jan-20 15:10 35.097307 -120.164296 314 34127ft 401kts
08-Jan-20 15:12 35.191177 -120.274071 321 34133ft 402kts
08-Jan-20 15:12 35.265911 -120.342410 322 34139ft 401kts
08-Jan-20 15:13 35.355188 -120.423818 321 34141ft 401kts
08-Jan-20 15:14 35.444435 -120.506039 321 34144ft 401kts
08-Jan-20 15:15 35.533853 -120.588205 323 34148ft 401kts
08-Jan-20 15:16 35.627921 -120.661620 325 34149ft 401kts
08-Jan-20 15:17 35.722129 -120.735477 325 34150ft 401kts
08-Jan-20 15:18 35.812442 -120.806120 325 34147ft 364kts
08-Jan-20 15:19 35.892858 -120.869741 324 34154ft 335kts
08-Jan-20 15:20 35.971399 -120.932043 324 33559ft 336kts
08-Jan-20 15:21 36.053133 -121.002632 320 29750ft 378kts
08-Jan-20 15:22 36.135096 -121.081469 321 27388ft 365kts
08-Jan-20 15:23 36.214399 -121.157226 321 24727ft 347kts
08-Jan-20 15:24 36.286482 -121.226319 321 23130ft 332kts
08-Jan-20 15:25 36.361370 -121.298205 321 20813ft 335kts
08-Jan-20 15:26 36.433177 -121.367301 320 18300ft 320kts
08-Jan-20 15:27 36.505579 -121.431480 332 16070ft 320kts
08-Jan-20 15:28 36.588580 -121.468620 338 14223ft 309kts
08-Jan-20 15:29 36.664182 -121.500511 337 13084ft 273kts
08-Jan-20 15:30 36.735128 -121.530594 338 11772ft 268kts
08-Jan-20 15:31 36.807608 -121.561314 339 10206ft 271kts
08-Jan-20 15:32 36.878872 -121.591673 340 8746ft 273kts
08-Jan-20 15:33 36.949884 -121.621879 340 7595ft 268kts
08-Jan-20 15:34 37.019559 -121.651443 340 6407ft 261kts
08-Jan-20 15:35 37.087672 -121.680415 340 5267ft 257kts
08-Jan-20 15:36 37.152145 -121.707855 340 4242ft 247kts
08-Jan-20 15:37 37.203905 -121.755942 318 3629ft 218kts
08-Jan-20 15:38 37.246305 -121.802523 318 2841ft 185kts
08-Jan-20 15:39 37.282516 -121.842059 317 2203ft 166kts
08-Jan-20 15:40 37.314563 -121.877783 319 1248ft 146kts
08-Jan-20 15:41 37.344550 -121.910170 320 369ft 139kts
08-Jan-20 15:42 37.365992 -121.933482 323 70ft 24kts
08-Jan-20 15:43 37.368926 -121.930924 138 70ft 11kts
08-Jan-20 15:44 37.364789 -121.926406 137 70ft 14kts
08-Jan-20 15:45 37.364312 -121.924632 48 70ft 0kts
08-Jan-20 15:46 37.364312 -121.924632 48 70ft 0kts
08-Jan-20 15:47 37.364312 -121.924632 48 70ft 0kts
08-Jan-20 15:48 37.364312 -121.924632 48 70ft 0kts
08-Jan-20 15:49 37.364312 -121.924632 48 70ft 0kts
08-Jan-20 15:50 37.364312 -121.924632 48 70ft 0kts
08-Jan-20 15:51 37.364312 -121.924632 48 70ft 0kts

Navigation Log

Ident Type
Flight plan parsing failed, navigation log unavailable